Holt, United Kingdom
Current Conditions -  °F | °C
As of 10:20 AM on Wednesday 26 Nov 2014 (Local Time) from EGSH Reporting Station
Light Rain Light Rain  
Wind Chill: 44°   Ceiling: 1000
Heat Index: 46°   Visibility: 1.8mi
Dew Point: 46°   Wind: 6mph
Humidity: 100%   Direction: 70°ENE
Pressure: 29.91"   Gusts: NA
Location:  52.91°N, 1.09°E
Report Text: EGSH 261020Z 07005KT 3000 -RA BR SCT003 BKN010 08/08 Q1013 TEMPO 2000 BKN009
Loading
Personal Weather Stations






























Interactive Weather Map New forecast layout! Learn more

10-Day Weather Forecast

Advertisements
Track Severe Weather on mobile